createdAt,value
2022-08-10T00:04:21.193Z,0.70
2022-08-10T00:09:13.326Z,0.60
2022-08-10T00:14:04.960Z,0.50
2022-08-10T00:18:56.620Z,1.45
2022-08-10T00:23:48.267Z,0.82
2022-08-10T00:28:39.948Z,0.70
2022-08-10T00:33:31.576Z,0.77
2022-08-10T00:38:23.343Z,0.80
2022-08-10T00:43:15.071Z,0.68
2022-08-10T00:48:16.133Z,0.70
2022-08-10T00:53:08.138Z,0.60
2022-08-10T00:58:00.468Z,0.60
2022-08-10T01:02:53.183Z,0.63
2022-08-10T01:07:51.172Z,0.50
2022-08-10T01:13:07.127Z,0.80
2022-08-10T01:18:05.555Z,0.80
2022-08-10T01:23:34.712Z,0.82
2022-08-10T01:29:01.282Z,0.77
2022-08-10T01:34:02.337Z,0.80
2022-08-10T01:38:56.897Z,0.70
2022-08-10T01:44:00.033Z,0.77
2022-08-10T01:48:59.026Z,0.63
2022-08-10T01:54:12.947Z,1.00
2022-08-10T01:59:10.859Z,0.80
2022-08-10T02:04:08.242Z,0.70
2022-08-10T02:09:06.478Z,1.00
2022-08-10T02:14:00.889Z,0.60
2022-08-10T02:18:55.134Z,0.85
2022-08-10T02:23:59.716Z,0.88
2022-08-10T02:28:54.685Z,1.20
2022-08-10T02:33:56.446Z,1.20
2022-08-10T02:39:00.971Z,1.00
2022-08-10T02:45:19.467Z,1.55
2022-08-10T02:49:32.377Z,1.27
2022-08-10T02:54:28.955Z,1.27
2022-08-10T02:59:39.877Z,2.08
2022-08-10T03:04:57.269Z,2.00
2022-08-10T03:09:52.122Z,1.63
2022-08-10T03:14:45.617Z,1.55
2022-08-10T03:20:34.707Z,1.80
2022-08-10T03:24:51.566Z,2.00
2022-08-10T03:30:29.995Z,1.98
2022-08-10T03:34:58.514Z,1.50
2022-08-10T03:39:51.467Z,1.63
2022-08-10T03:44:47.398Z,1.83
2022-08-10T03:49:44.071Z,1.60
2022-08-10T03:54:36.102Z,1.90
2022-08-10T03:59:28.323Z,1.70
2022-08-10T04:04:24.695Z,1.23
2022-08-10T04:09:17.337Z,1.75
2022-08-10T04:14:09.225Z,1.98
2022-08-10T04:19:21.811Z,1.52
2022-08-10T04:24:29.048Z,1.38
2022-08-10T04:29:21.747Z,1.90
2022-08-10T04:34:15.801Z,1.83
2022-08-10T04:39:08.023Z,1.65
2022-08-10T04:43:59.726Z,1.77
2022-08-10T04:49:01.265Z,2.00
2022-08-10T04:54:04.080Z,1.88
2022-08-10T04:58:57.896Z,1.48
2022-08-10T05:04:37.152Z,1.80
2022-08-10T05:09:01.198Z,2.22
2022-08-10T05:13:52.814Z,1.63
2022-08-10T05:18:44.422Z,1.77
2022-08-10T05:23:36.062Z,1.50
2022-08-10T05:28:27.858Z,1.48
2022-08-10T05:33:24.235Z,2.00
2022-08-10T05:38:17.810Z,1.52
2022-08-10T05:43:09.587Z,1.42
2022-08-10T05:48:58.146Z,1.35
2022-08-10T05:53:59.643Z,1.33
2022-08-10T05:58:27.968Z,0.88
2022-08-10T06:03:24.349Z,1.23
2022-08-10T06:08:19.246Z,1.42
2022-08-10T06:13:34.803Z,1.17
2022-08-10T06:18:43.446Z,1.10
2022-08-10T06:23:37.087Z,0.90
2022-08-10T06:28:31.260Z,1.20
2022-08-10T06:33:24.518Z,1.20
2022-08-10T06:38:17.225Z,0.95
2022-08-10T06:43:13.489Z,1.10
2022-08-10T06:48:28.753Z,0.70
2022-08-10T06:53:22.853Z,0.88
2022-08-10T06:58:15.818Z,0.82
2022-08-10T07:03:11.521Z,1.00
2022-08-10T07:08:03.978Z,1.00
2022-08-10T07:12:57.947Z,0.80
2022-08-10T07:17:52.814Z,1.05
2022-08-10T07:23:01.306Z,0.80
2022-08-10T07:28:03.385Z,0.70
2022-08-10T07:32:56.136Z,0.90
2022-08-10T07:37:51.445Z,0.80
2022-08-10T07:42:46.179Z,0.60
2022-08-10T07:47:53.533Z,0.70
2022-08-10T07:52:48.910Z,0.60
2022-08-10T07:57:44.544Z,0.70
2022-08-10T08:02:46.236Z,0.67
2022-08-10T08:07:39.019Z,0.70
2022-08-10T08:12:36.910Z,0.75
2022-08-10T08:17:36.432Z,0.68
2022-08-10T08:24:09.318Z,0.55
2022-08-10T08:27:42.854Z,0.60
2022-08-10T08:32:42.349Z,0.70
2022-08-10T08:38:32.337Z,0.50
2022-08-10T08:43:27.368Z,0.85
2022-08-10T08:48:31.276Z,0.60
2022-08-10T08:54:01.756Z,0.50
2022-08-10T08:59:11.405Z,0.60
2022-08-10T09:04:24.189Z,0.50
2022-08-10T09:09:35.374Z,0.60
2022-08-10T09:14:57.107Z,0.50
2022-08-10T09:19:56.029Z,0.50
2022-08-10T09:25:14.143Z,1.23
2022-08-10T09:30:08.674Z,0.70
2022-08-10T09:36:22.293Z,0.60
2022-08-10T09:41:00.940Z,0.60
2022-08-10T09:46:20.521Z,0.70
2022-08-10T09:56:41.643Z,0.80
2022-08-10T10:02:02.959Z,0.75
2022-08-10T10:06:58.538Z,0.60
2022-08-10T10:17:03.987Z,0.65
2022-08-10T10:22:10.678Z,0.80
2022-08-10T10:27:24.661Z,0.60
2022-08-10T10:32:24.476Z,0.60
2022-08-10T10:37:20.044Z,0.70
2022-08-10T10:42:46.887Z,0.65
2022-08-10T10:47:50.636Z,0.65
2022-08-10T10:53:18.026Z,0.70
2022-08-10T10:58:21.731Z,0.60
2022-08-10T11:08:29.325Z,0.60
2022-08-10T11:14:25.481Z,0.50
2022-08-10T11:18:58.038Z,0.60
2022-08-10T11:24:47.037Z,0.60
2022-08-10T11:29:32.317Z,0.57
2022-08-10T11:35:10.433Z,0.50
2022-08-10T11:40:13.205Z,0.70
2022-08-10T11:45:29.649Z,0.60
2022-08-10T11:50:26.677Z,0.60
2022-08-10T11:55:24.714Z,0.85
2022-08-10T12:00:17.464Z,0.60
2022-08-10T12:05:18.152Z,0.50
2022-08-10T12:10:13.704Z,0.70
2022-08-10T12:15:27.947Z,0.60
2022-08-10T12:20:39.435Z,0.80
2022-08-10T12:25:59.307Z,0.55
2022-08-10T12:30:56.553Z,0.80
2022-08-10T12:36:17.410Z,0.60
2022-08-10T12:41:43.743Z,0.60
2022-08-10T12:51:33.699Z,0.55
2022-08-10T12:56:28.024Z,0.50
2022-08-10T13:01:23.372Z,0.50
2022-08-10T13:06:16.861Z,0.60
2022-08-10T13:12:34.332Z,0.60
2022-08-10T13:16:24.578Z,0.55
2022-08-10T13:21:29.864Z,0.50
2022-08-10T13:26:26.330Z,0.70
2022-08-10T13:32:03.378Z,0.60
2022-08-10T13:36:41.761Z,0.60
2022-08-10T13:41:45.138Z,0.60
2022-08-10T13:46:40.478Z,0.70
2022-08-10T13:51:53.973Z,0.80
2022-08-10T13:56:51.155Z,0.70
2022-08-10T14:01:48.973Z,0.60
2022-08-10T14:06:48.661Z,0.68
2022-08-10T14:11:42.046Z,0.60
2022-08-10T14:16:35.076Z,0.70
2022-08-10T14:21:27.826Z,0.60
2022-08-10T14:26:25.150Z,0.55
2022-08-10T14:31:22.194Z,0.60
2022-08-10T14:36:24.236Z,0.70
2022-08-10T14:42:02.581Z,0.70
2022-08-10T14:46:36.821Z,0.60
2022-08-10T14:51:43.907Z,1.00
2022-08-10T14:56:37.318Z,0.60
2022-08-10T15:02:01.468Z,0.50
2022-08-10T15:06:54.118Z,0.73
2022-08-10T15:12:13.354Z,0.73
2022-08-10T15:17:11.349Z,0.60
2022-08-10T15:22:18.127Z,0.80
2022-08-10T15:27:19.468Z,0.80
2022-08-10T15:32:30.402Z,0.70
2022-08-10T15:37:47.165Z,0.70
2022-08-10T15:42:39.155Z,0.77
2022-08-10T15:47:45.623Z,0.63
2022-08-10T15:53:00.483Z,0.80
2022-08-10T15:58:12.950Z,0.80
2022-08-10T16:03:15.843Z,0.60
2022-08-10T16:08:11.171Z,0.70
2022-08-10T16:13:50.504Z,0.68
2022-08-10T16:18:27.705Z,0.98
2022-08-10T16:23:23.992Z,0.70
2022-08-10T16:28:19.980Z,1.00
2022-08-10T16:33:18.562Z,0.68
2022-08-10T16:38:13.391Z,1.17
2022-08-10T16:43:09.325Z,0.70
2022-08-10T16:48:01.894Z,0.75
2022-08-10T16:52:54.263Z,0.55
2022-08-10T16:57:48.507Z,0.60
2022-08-10T17:02:45.978Z,0.60
2022-08-10T17:07:40.875Z,0.63
2022-08-10T17:12:34.979Z,0.52
2022-08-10T17:17:31.362Z,0.68
2022-08-10T17:22:28.170Z,0.60
2022-08-10T17:28:05.633Z,0.90
2022-08-10T17:33:24.845Z,0.65
2022-08-10T17:38:21.341Z,0.70
2022-08-10T17:44:00.805Z,0.60
2022-08-10T17:48:34.921Z,0.50
2022-08-10T17:53:42.046Z,0.60
2022-08-10T17:58:35.780Z,0.70
2022-08-10T18:03:32.277Z,0.50
2022-08-10T18:13:21.622Z,0.70
2022-08-10T18:18:20.884Z,0.70
2022-08-10T18:23:13.554Z,0.60
2022-08-10T18:28:10.664Z,0.60
2022-08-10T18:33:04.607Z,0.63
2022-08-10T18:38:01.462Z,0.50
2022-08-10T18:42:56.466Z,0.52
2022-08-10T18:47:58.949Z,0.60
2022-08-10T18:52:58.038Z,0.60
2022-08-10T18:58:20.181Z,0.50
2022-08-10T19:03:25.692Z,0.55
2022-08-10T19:08:49.539Z,0.50
2022-08-10T19:13:51.103Z,0.60
2022-08-10T19:19:00.506Z,0.60
2022-08-10T19:23:58.091Z,0.70
2022-08-10T19:30:04.957Z,1.50
2022-08-10T19:34:53.352Z,1.40
2022-08-10T19:40:12.169Z,1.00
2022-08-10T19:46:01.997Z,1.45
2022-08-10T19:51:01.983Z,1.50
2022-08-10T19:56:30.559Z,1.40
2022-08-10T20:01:20.271Z,1.10
2022-08-10T20:06:24.121Z,1.75
2022-08-10T20:11:46.045Z,1.45
2022-08-10T20:16:42.838Z,1.73
2022-08-10T20:21:47.284Z,1.60
2022-08-10T20:26:55.590Z,1.02
2022-08-10T20:31:53.290Z,1.70
2022-08-10T20:36:56.897Z,1.10
2022-08-10T20:42:10.553Z,1.80
2022-08-10T20:47:18.493Z,1.30
2022-08-10T20:52:10.977Z,0.85
2022-08-10T20:57:05.460Z,0.93
2022-08-10T21:02:34.899Z,1.20
2022-08-10T21:08:01.139Z,1.45
2022-08-10T21:13:16.313Z,1.40
2022-08-10T21:18:08.113Z,1.48
2022-08-10T21:23:05.921Z,1.38
2022-08-10T21:28:29.432Z,1.30
2022-08-10T21:33:45.432Z,1.42
2022-08-10T21:38:57.956Z,1.00
2022-08-10T21:45:01.079Z,1.80
2022-08-10T21:50:27.461Z,1.10
2022-08-10T21:55:58.252Z,1.40
2022-08-10T22:01:15.207Z,1.10
2022-08-10T22:06:27.854Z,1.42
2022-08-10T22:11:42.997Z,1.63
2022-08-10T22:17:59.470Z,1.38
2022-08-10T22:22:56.095Z,1.55
2022-08-10T22:33:27.722Z,2.20
2022-08-10T22:39:08.730Z,2.47
2022-08-10T22:44:21.206Z,2.95
2022-08-10T22:49:13.506Z,3.10
2022-08-10T22:54:35.954Z,3.72
2022-08-10T22:59:32.630Z,3.35
2022-08-10T23:04:55.761Z,3.20
2022-08-10T23:10:10.309Z,3.28
2022-08-10T23:15:22.247Z,3.38
2022-08-10T23:20:18.169Z,2.65
2022-08-10T23:25:13.826Z,2.80
2022-08-10T23:30:17.708Z,3.25
2022-08-10T23:36:08.761Z,2.80
2022-08-10T23:40:32.866Z,2.50
2022-08-10T23:45:27.893Z,2.22
2022-08-10T23:50:20.554Z,1.65
2022-08-10T23:55:19.684Z,1.20
